createdAt,value
2023-02-24T00:00:32.662Z,39.20
2023-02-24T00:03:06.093Z,39.39
2023-02-24T00:05:36.039Z,39.00
2023-02-24T00:08:04.163Z,39.26
2023-02-24T00:10:32.903Z,39.19
2023-02-24T00:13:02.390Z,39.13
2023-02-24T00:15:30.612Z,39.18
2023-02-24T00:17:59.423Z,39.19
2023-02-24T00:20:27.564Z,39.24
2023-02-24T00:22:55.646Z,39.21
2023-02-24T00:25:23.952Z,39.16
2023-02-24T00:27:51.999Z,39.10
2023-02-24T00:30:24.045Z,39.23
2023-02-24T00:32:52.161Z,39.13
2023-02-24T00:35:20.342Z,39.15
2023-02-24T00:37:51.382Z,39.20
2023-02-24T00:40:23.448Z,39.08
2023-02-24T00:42:51.926Z,39.09
2023-02-24T00:45:21.441Z,39.12
2023-02-24T00:47:49.537Z,39.12
2023-02-24T00:50:18.209Z,39.04
2023-02-24T00:52:46.337Z,39.17
2023-02-24T00:55:15.293Z,39.09
2023-02-24T00:57:45.049Z,39.25
2023-02-24T01:00:15.498Z,39.10
2023-02-24T01:02:47.286Z,39.12
2023-02-24T01:05:16.025Z,39.00
2023-02-24T01:07:44.149Z,39.08
2023-02-24T01:10:13.381Z,39.03
2023-02-24T01:12:50.108Z,39.15
2023-02-24T01:15:19.346Z,39.00
2023-02-24T01:17:49.277Z,39.14
2023-02-24T01:20:19.232Z,39.04
2023-02-24T01:22:49.630Z,39.04
2023-02-24T01:25:20.169Z,39.08
2023-02-24T01:27:48.508Z,39.09
2023-02-24T01:30:18.544Z,39.14
2023-02-24T01:32:48.785Z,39.09
2023-02-24T01:35:17.882Z,39.11
2023-02-24T01:37:46.414Z,39.05
2023-02-24T01:40:21.845Z,38.96
2023-02-24T01:42:51.100Z,39.05
2023-02-24T01:45:26.056Z,38.86
2023-02-24T01:48:00.272Z,39.05
2023-02-24T01:50:29.616Z,39.09
2023-02-24T01:53:02.025Z,39.15
2023-02-24T01:55:34.737Z,39.09
2023-02-24T01:58:07.050Z,39.09
2023-02-24T02:00:39.059Z,39.06
2023-02-24T02:03:13.334Z,39.12
2023-02-24T02:05:43.065Z,39.13
2023-02-24T02:08:13.057Z,39.05
2023-02-24T02:10:44.305Z,39.20
2023-02-24T02:13:14.374Z,39.22
2023-02-24T02:15:53.879Z,39.05
2023-02-24T02:18:32.226Z,39.03
2023-02-24T02:21:44.213Z,39.10
2023-02-24T02:24:36.476Z,39.03
2023-02-24T02:27:31.758Z,39.08
2023-02-24T02:30:34.184Z,39.11
2023-02-24T02:33:39.520Z,39.04
2023-02-24T02:36:18.771Z,39.07
2023-02-24T02:38:54.299Z,39.13
2023-02-24T02:41:28.604Z,39.16
2023-02-24T02:44:07.571Z,39.14
2023-02-24T02:46:42.434Z,38.97
2023-02-24T02:49:17.753Z,39.11
2023-02-24T02:51:52.914Z,39.04
2023-02-24T02:54:28.690Z,39.16
2023-02-24T02:57:03.256Z,39.01
2023-02-24T02:59:35.179Z,39.26
2023-02-24T03:02:14.998Z,39.12
2023-02-24T03:04:47.616Z,39.16
2023-02-24T03:07:19.865Z,39.12
2023-02-24T03:09:53.146Z,39.17
2023-02-24T03:12:24.200Z,39.05
2023-02-24T03:14:59.201Z,39.08
2023-02-24T03:17:31.660Z,39.07
2023-02-24T03:20:15.539Z,39.15
2023-02-24T03:22:50.044Z,39.13
2023-02-24T03:25:19.474Z,39.09
2023-02-24T03:27:52.110Z,39.06
2023-02-24T03:30:26.804Z,39.04
2023-02-24T03:32:59.492Z,39.19
2023-02-24T03:35:30.402Z,39.05
2023-02-24T03:38:00.756Z,39.02
2023-02-24T03:40:33.968Z,39.15
2023-02-24T03:43:06.860Z,39.14
2023-02-24T03:45:38.107Z,39.17
2023-02-24T03:48:07.947Z,39.06
2023-02-24T03:50:38.183Z,38.94
2023-02-24T03:53:30.622Z,39.01
2023-02-24T03:56:06.596Z,39.10
2023-02-24T03:58:47.232Z,39.08
2023-02-24T04:01:31.060Z,38.99
2023-02-24T04:04:05.195Z,39.10
2023-02-24T04:06:39.483Z,39.03
2023-02-24T04:09:17.140Z,39.11
2023-02-24T04:11:50.322Z,39.13
2023-02-24T04:14:25.062Z,39.21
2023-02-24T04:17:01.215Z,39.10
2023-02-24T04:19:34.086Z,39.05
2023-02-24T04:22:04.528Z,39.04
2023-02-24T04:24:35.459Z,39.09
2023-02-24T04:27:07.598Z,39.12
2023-02-24T04:29:40.449Z,39.29
2023-02-24T04:32:13.062Z,39.02
2023-02-24T04:34:41.541Z,39.00
2023-02-24T04:37:10.380Z,38.99
2023-02-24T04:39:39.876Z,39.04
2023-02-24T04:42:08.486Z,39.25
2023-02-24T04:44:36.788Z,39.04
2023-02-24T04:47:05.249Z,39.11
2023-02-24T04:49:34.123Z,39.04
2023-02-24T04:52:02.126Z,39.13
2023-02-24T04:54:30.153Z,39.17
2023-02-24T04:56:59.626Z,39.08
2023-02-24T04:59:28.984Z,39.05
2023-02-24T05:02:01.700Z,39.01
2023-02-24T05:04:31.853Z,39.10
2023-02-24T05:07:00.342Z,39.16
2023-02-24T05:09:30.266Z,39.02
2023-02-24T05:12:00.467Z,39.21
2023-02-24T05:14:28.832Z,39.05
2023-02-24T05:17:00.672Z,39.19
2023-02-24T05:19:46.173Z,39.03
2023-02-24T05:22:14.587Z,39.03
2023-02-24T05:24:42.630Z,39.13
2023-02-24T05:27:12.080Z,39.13
2023-02-24T05:29:40.547Z,39.04
2023-02-24T05:32:08.868Z,39.12
2023-02-24T05:34:39.109Z,39.23
2023-02-24T05:37:10.764Z,39.00
2023-02-24T05:39:39.101Z,39.07
2023-02-24T05:42:07.744Z,39.14
2023-02-24T05:44:37.518Z,39.16
2023-02-24T05:47:06.080Z,39.14
2023-02-24T05:49:36.127Z,38.99
2023-02-24T05:52:09.003Z,38.99
2023-02-24T05:54:40.014Z,39.14
2023-02-24T05:57:11.831Z,39.14
2023-02-24T05:59:42.435Z,39.09
2023-02-24T06:02:13.097Z,39.20
2023-02-24T06:04:50.993Z,39.16
2023-02-24T06:07:20.916Z,39.05
2023-02-24T06:09:50.852Z,39.11
2023-02-24T06:12:19.752Z,39.16
2023-02-24T06:14:49.459Z,39.06
2023-02-24T06:17:18.840Z,39.14
2023-02-24T06:19:48.091Z,39.18
2023-02-24T06:22:19.385Z,39.03
2023-02-24T06:24:49.581Z,39.21
2023-02-24T06:27:21.796Z,39.18
2023-02-24T06:29:52.857Z,39.03
2023-02-24T06:32:23.860Z,39.12
2023-02-24T06:34:53.989Z,39.08
2023-02-24T06:37:23.038Z,39.02
2023-02-24T06:39:51.373Z,39.21
2023-02-24T06:42:19.918Z,39.16
2023-02-24T06:44:48.199Z,38.98
2023-02-24T06:47:18.650Z,39.10
2023-02-24T06:49:48.026Z,38.92
2023-02-24T06:52:19.201Z,39.17
2023-02-24T06:54:49.253Z,39.00
2023-02-24T06:57:17.706Z,39.05
2023-02-24T06:59:46.341Z,39.07
2023-02-24T07:02:14.569Z,39.04
2023-02-24T07:04:44.860Z,38.95
2023-02-24T07:07:14.602Z,39.00
2023-02-24T07:09:45.577Z,38.78
2023-02-24T07:12:15.688Z,39.06
2023-02-24T07:14:44.104Z,39.19
2023-02-24T07:17:14.868Z,39.11
2023-02-24T07:19:44.432Z,39.01
2023-02-24T07:22:14.803Z,38.97
2023-02-24T07:24:46.439Z,39.01
2023-02-24T07:27:23.042Z,39.04
2023-02-24T07:29:53.509Z,38.96
2023-02-24T07:32:23.576Z,38.99
2023-02-24T07:34:53.426Z,38.94
2023-02-24T07:37:23.662Z,39.09
2023-02-24T07:39:51.852Z,39.00
2023-02-24T07:42:19.972Z,38.97
2023-02-24T07:44:49.359Z,39.13
2023-02-24T07:47:17.782Z,39.03
2023-02-24T07:49:46.147Z,39.08
2023-02-24T07:52:16.253Z,39.04
2023-02-24T07:54:44.497Z,39.04
2023-02-24T07:57:14.253Z,38.99
2023-02-24T07:59:47.397Z,39.15
2023-02-24T08:02:16.301Z,38.97
2023-02-24T08:04:50.396Z,39.07
2023-02-24T08:07:25.188Z,39.02
2023-02-24T08:10:14.587Z,38.96
2023-02-24T08:12:47.645Z,38.97
2023-02-24T08:15:23.770Z,39.10
2023-02-24T08:17:53.241Z,39.00
2023-02-24T08:20:30.034Z,39.17
2023-02-24T08:22:59.659Z,39.11
2023-02-24T08:25:35.937Z,39.13
2023-02-24T08:28:09.423Z,39.12
2023-02-24T08:30:40.082Z,39.12
2023-02-24T08:33:10.889Z,39.30
2023-02-24T08:35:44.929Z,39.14
2023-02-24T08:38:17.068Z,39.07
2023-02-24T08:40:55.066Z,39.19
2023-02-24T08:43:33.182Z,39.05
2023-02-24T08:46:06.596Z,39.22
2023-02-24T08:48:42.420Z,39.26
2023-02-24T08:51:15.452Z,39.18
2023-02-24T08:53:46.930Z,39.22
2023-02-24T08:56:24.468Z,39.15
2023-02-24T08:58:57.216Z,39.19
2023-02-24T09:01:31.021Z,39.16
2023-02-24T09:04:00.463Z,39.18
2023-02-24T09:06:38.101Z,39.25
2023-02-24T09:09:21.262Z,39.06
2023-02-24T09:11:56.185Z,39.24
2023-02-24T09:14:28.492Z,39.32
2023-02-24T09:17:06.033Z,39.03
2023-02-24T09:20:01.808Z,39.23
2023-02-24T09:22:57.375Z,39.21
2023-02-24T09:25:40.829Z,39.21
2023-02-24T09:28:17.256Z,39.10
2023-02-24T09:30:54.484Z,39.19
2023-02-24T09:33:26.036Z,39.15
2023-02-24T09:36:10.702Z,39.16
2023-02-24T09:38:57.767Z,39.20
2023-02-24T09:41:53.384Z,39.31
2023-02-24T09:44:27.699Z,39.26
2023-02-24T09:46:59.330Z,39.12
2023-02-24T09:49:40.185Z,39.16
2023-02-24T09:52:17.129Z,39.25
2023-02-24T09:55:14.631Z,39.28
2023-02-24T09:58:26.971Z,39.35
2023-02-24T10:01:21.239Z,39.31
2023-02-24T10:04:14.807Z,39.31
2023-02-24T10:06:50.311Z,39.19
2023-02-24T10:09:27.088Z,39.43
2023-02-24T10:12:04.526Z,39.13
2023-02-24T10:14:44.073Z,39.24
2023-02-24T10:17:24.894Z,39.39
2023-02-24T10:20:00.259Z,39.30
2023-02-24T10:22:50.712Z,39.25
2023-02-24T10:25:40.061Z,39.12
2023-02-24T10:28:20.180Z,39.27
2023-02-24T10:31:04.240Z,39.30
2023-02-24T10:33:39.142Z,39.35
2023-02-24T10:36:10.130Z,39.25
2023-02-24T10:38:40.924Z,39.28
2023-02-24T10:41:11.540Z,39.22
2023-02-24T10:43:46.510Z,39.20
2023-02-24T10:46:39.984Z,39.35
2023-02-24T10:49:16.958Z,39.20
2023-02-24T10:51:53.225Z,39.36
2023-02-24T10:54:45.216Z,39.23
2023-02-24T10:57:23.209Z,39.29
2023-02-24T11:00:13.950Z,39.34
2023-02-24T11:03:19.460Z,39.34
2023-02-24T11:06:08.326Z,39.22
2023-02-24T11:08:44.119Z,39.20
2023-02-24T11:11:25.543Z,39.29
2023-02-24T11:14:12.493Z,39.21
2023-02-24T11:17:06.810Z,39.28
2023-02-24T11:19:43.932Z,39.25
2023-02-24T11:22:17.486Z,39.25
2023-02-24T11:24:46.859Z,39.37
2023-02-24T11:27:17.518Z,39.19
2023-02-24T11:30:09.108Z,39.41
2023-02-24T11:32:48.552Z,39.30
2023-02-24T11:35:24.481Z,39.27
2023-02-24T11:38:03.037Z,39.37
2023-02-24T11:40:38.369Z,39.19
2023-02-24T11:43:13.905Z,39.22
2023-02-24T11:45:47.342Z,39.28
2023-02-24T11:48:20.108Z,39.35
2023-02-24T11:50:55.044Z,39.40
2023-02-24T11:53:29.134Z,39.30
2023-02-24T11:56:02.994Z,39.22
2023-02-24T11:58:39.656Z,39.33
2023-02-24T12:01:15.991Z,39.31
2023-02-24T12:03:56.966Z,39.23
2023-02-24T12:06:31.871Z,39.26
2023-02-24T12:09:07.803Z,39.26
2023-02-24T12:11:42.740Z,39.35
2023-02-24T12:14:20.372Z,39.32
2023-02-24T12:16:53.440Z,39.25
2023-02-24T12:19:28.526Z,39.42
2023-02-24T12:22:05.988Z,39.25
2023-02-24T12:24:37.424Z,39.40
2023-02-24T12:27:18.638Z,39.22
2023-02-24T12:30:06.449Z,39.38
2023-02-24T12:32:53.011Z,39.36
2023-02-24T12:35:29.967Z,39.37
2023-02-24T12:38:11.048Z,39.29
2023-02-24T12:40:46.585Z,39.33
2023-02-24T12:43:26.526Z,39.25
2023-02-24T12:46:04.571Z,39.24
2023-02-24T12:48:53.906Z,39.27
2023-02-24T12:51:29.831Z,39.36
2023-02-24T12:54:06.555Z,39.25
2023-02-24T12:56:42.787Z,39.31
2023-02-24T12:59:16.750Z,39.22
2023-02-24T13:01:52.537Z,39.23
2023-02-24T13:04:34.047Z,39.40
2023-02-24T13:07:10.802Z,39.27
2023-02-24T13:09:48.503Z,39.28
2023-02-24T13:12:23.790Z,39.37
2023-02-24T13:14:52.648Z,39.29
2023-02-24T13:17:23.170Z,39.25
2023-02-24T13:19:53.433Z,39.16
2023-02-24T13:22:25.184Z,39.30
2023-02-24T13:25:11.556Z,39.19
2023-02-24T13:27:42.105Z,39.18
2023-02-24T13:30:32.893Z,39.36
2023-02-24T13:33:04.337Z,39.31
2023-02-24T13:35:35.409Z,39.40
2023-02-24T13:38:27.422Z,39.38
2023-02-24T13:41:08.383Z,39.11
2023-02-24T13:43:36.617Z,39.22
2023-02-24T13:46:19.902Z,39.47
2023-02-24T13:49:02.042Z,39.40
2023-02-24T13:51:52.427Z,39.36
2023-02-24T13:54:50.910Z,39.36
2023-02-24T13:57:48.908Z,39.39
2023-02-24T14:00:28.522Z,39.29
2023-02-24T14:02:58.130Z,39.39
2023-02-24T14:05:29.861Z,39.20
2023-02-24T14:07:58.461Z,39.29
2023-02-24T14:10:29.814Z,39.33
2023-02-24T14:13:06.502Z,39.29
2023-02-24T14:15:35.824Z,39.33
2023-02-24T14:18:06.826Z,39.23
2023-02-24T14:20:37.600Z,39.34
2023-02-24T14:23:22.255Z,39.37
2023-02-24T14:25:55.958Z,39.44
2023-02-24T14:28:28.632Z,39.20
2023-02-24T14:30:59.386Z,39.30
2023-02-24T14:33:32.483Z,39.15
2023-02-24T14:36:01.959Z,39.18
2023-02-24T14:38:35.574Z,39.32
2023-02-24T14:41:05.793Z,39.26
2023-02-24T14:43:42.085Z,39.27
2023-02-24T14:46:10.656Z,39.32
2023-02-24T14:48:38.779Z,39.40
2023-02-24T14:51:10.081Z,39.20
2023-02-24T14:53:43.516Z,39.36
2023-02-24T14:56:14.562Z,39.33
2023-02-24T14:58:50.862Z,39.37
2023-02-24T15:01:24.150Z,39.22
2023-02-24T15:03:55.397Z,39.13
2023-02-24T15:06:27.547Z,39.30
2023-02-24T15:08:59.588Z,39.33
2023-02-24T15:11:30.358Z,39.16
2023-02-24T15:14:02.511Z,39.22
2023-02-24T15:16:38.381Z,39.23
2023-02-24T15:19:06.789Z,39.23
2023-02-24T15:21:40.785Z,39.21
2023-02-24T15:24:19.546Z,39.25
2023-02-24T15:26:53.558Z,39.29
2023-02-24T15:29:26.904Z,39.24
2023-02-24T15:31:56.346Z,39.35
2023-02-24T15:34:26.996Z,39.22
2023-02-24T15:36:58.094Z,39.31
2023-02-24T15:39:31.254Z,39.21
2023-02-24T15:42:09.445Z,39.18
2023-02-24T15:44:38.958Z,39.16
2023-02-24T15:47:24.145Z,39.20
2023-02-24T15:49:52.217Z,39.21
2023-02-24T15:52:24.394Z,39.24
2023-02-24T15:54:53.374Z,39.18
2023-02-24T15:57:21.820Z,39.24
2023-02-24T15:59:51.573Z,39.35
2023-02-24T16:02:21.203Z,39.27
2023-02-24T16:04:50.649Z,39.16
2023-02-24T16:07:22.080Z,39.14
2023-02-24T16:09:51.938Z,39.22
2023-02-24T16:12:22.946Z,39.10
2023-02-24T16:14:55.990Z,39.23
2023-02-24T16:17:31.672Z,39.25
2023-02-24T16:19:59.851Z,39.26
2023-02-24T16:22:28.741Z,39.30
2023-02-24T16:24:56.857Z,39.36
2023-02-24T16:27:27.640Z,39.42
2023-02-24T16:29:57.812Z,39.50
2023-02-24T16:32:35.238Z,39.49
2023-02-24T16:35:03.470Z,39.31
2023-02-24T16:37:31.951Z,39.41
2023-02-24T16:40:00.092Z,39.58
2023-02-24T16:42:28.352Z,39.34
2023-02-24T16:44:57.795Z,39.36
2023-02-24T16:47:26.897Z,39.46
2023-02-24T16:49:58.031Z,39.69
2023-02-24T16:52:26.717Z,39.43
2023-02-24T16:54:54.834Z,39.61
2023-02-24T16:57:25.654Z,39.33
2023-02-24T16:59:53.952Z,39.49
2023-02-24T17:02:25.530Z,39.46
2023-02-24T17:04:54.244Z,39.36
2023-02-24T17:07:22.405Z,39.27
2023-02-24T17:09:50.580Z,39.32
2023-02-24T17:12:22.318Z,39.37
2023-02-24T17:14:50.567Z,39.33
2023-02-24T17:17:18.760Z,39.37
2023-02-24T17:19:48.287Z,39.17
2023-02-24T17:22:17.806Z,39.21
2023-02-24T17:24:45.876Z,39.16
2023-02-24T17:27:14.120Z,39.20
2023-02-24T17:29:42.180Z,39.06
2023-02-24T17:32:10.459Z,39.04
2023-02-24T17:34:38.695Z,39.07
2023-02-24T17:37:08.264Z,39.16
2023-02-24T17:39:36.330Z,39.10
2023-02-24T17:42:04.666Z,39.05
2023-02-24T17:44:32.922Z,39.00
2023-02-24T17:47:01.027Z,39.13
2023-02-24T17:49:29.126Z,39.03
2023-02-24T17:51:57.259Z,39.02
2023-02-24T17:54:26.745Z,38.99
2023-02-24T17:56:54.849Z,38.94
2023-02-24T17:59:23.069Z,39.13
2023-02-24T18:01:51.192Z,39.00
2023-02-24T18:04:19.760Z,39.04
2023-02-24T18:06:47.870Z,38.83
2023-02-24T18:09:16.009Z,39.06
2023-02-24T18:11:45.934Z,39.01
2023-02-24T18:14:14.327Z,38.89
2023-02-24T18:16:42.398Z,38.92
2023-02-24T18:19:10.469Z,38.90
2023-02-24T18:21:38.613Z,38.97
2023-02-24T18:24:07.236Z,39.00
2023-02-24T18:26:35.363Z,39.02
2023-02-24T18:29:04.893Z,38.90
2023-02-24T18:31:34.063Z,38.91
2023-02-24T18:34:02.676Z,39.12
2023-02-24T18:36:30.786Z,38.88
2023-02-24T18:38:59.227Z,38.92
2023-02-24T18:41:27.978Z,38.92
2023-02-24T18:43:59.196Z,38.96
2023-02-24T18:46:29.133Z,38.94
2023-02-24T18:48:57.812Z,38.91
2023-02-24T18:51:28.998Z,38.94
2023-02-24T18:53:59.398Z,38.86
2023-02-24T18:56:29.496Z,38.84
2023-02-24T18:58:59.270Z,38.90
2023-02-24T19:01:31.654Z,38.86
2023-02-24T19:04:00.836Z,38.69
2023-02-24T19:06:30.325Z,38.81
2023-02-24T19:09:02.115Z,38.79
2023-02-24T19:11:31.306Z,38.80
2023-02-24T19:14:00.512Z,38.76
2023-02-24T19:16:30.742Z,38.78
2023-02-24T19:18:59.996Z,38.70
2023-02-24T19:21:30.453Z,38.63
2023-02-24T19:24:01.097Z,38.80
2023-02-24T19:26:29.529Z,38.61
2023-02-24T19:28:59.329Z,38.76
2023-02-24T19:31:31.800Z,38.77
2023-02-24T19:34:01.581Z,38.84
2023-02-24T19:36:30.795Z,38.58
2023-02-24T19:38:59.157Z,38.80
2023-02-24T19:41:27.608Z,38.58
2023-02-24T19:43:55.787Z,38.64
2023-02-24T19:46:24.269Z,38.58
2023-02-24T19:48:54.126Z,38.62
2023-02-24T19:51:24.036Z,38.53
2023-02-24T19:53:53.942Z,38.38
2023-02-24T19:56:24.664Z,38.45
2023-02-24T19:58:54.150Z,38.37
2023-02-24T20:01:23.498Z,38.50
2023-02-24T20:03:51.830Z,38.54
2023-02-24T20:06:25.116Z,38.59
2023-02-24T20:08:53.877Z,38.58
2023-02-24T20:11:23.034Z,38.58
2023-02-24T20:13:55.198Z,38.50
2023-02-24T20:16:26.132Z,38.55
2023-02-24T20:18:56.509Z,38.52
2023-02-24T20:21:26.241Z,38.52
2023-02-24T20:23:54.590Z,38.47
2023-02-24T20:26:23.019Z,38.53
2023-02-24T20:28:51.154Z,38.49
2023-02-24T20:31:20.740Z,38.46
2023-02-24T20:33:50.076Z,38.51
2023-02-24T20:36:20.607Z,38.42
2023-02-24T20:38:50.736Z,38.45
2023-02-24T20:41:19.852Z,38.29
2023-02-24T20:43:48.250Z,38.45
2023-02-24T20:46:18.377Z,38.32
2023-02-24T20:48:46.870Z,38.38
2023-02-24T20:51:15.426Z,38.42
2023-02-24T20:53:56.685Z,38.46
2023-02-24T20:56:29.396Z,38.40
2023-02-24T20:59:01.165Z,38.29
2023-02-24T21:01:30.570Z,38.39
2023-02-24T21:03:59.230Z,38.29
2023-02-24T21:06:28.319Z,38.34
2023-02-24T21:08:56.715Z,38.32
2023-02-24T21:11:24.840Z,38.26
2023-02-24T21:13:54.688Z,38.29
2023-02-24T21:16:23.617Z,38.32
2023-02-24T21:18:53.313Z,38.38
2023-02-24T21:21:22.102Z,38.34
2023-02-24T21:23:51.332Z,38.38
2023-02-24T21:26:20.550Z,38.23
2023-02-24T21:28:49.608Z,38.30
2023-02-24T21:31:21.868Z,38.32
2023-02-24T21:33:53.780Z,38.12
2023-02-24T21:36:26.243Z,38.23
2023-02-24T21:38:55.527Z,38.25
2023-02-24T21:41:24.523Z,38.38
2023-02-24T21:43:56.278Z,38.26
2023-02-24T21:46:28.575Z,38.25
2023-02-24T21:48:57.589Z,38.30
2023-02-24T21:51:26.200Z,38.33
2023-02-24T21:53:55.461Z,38.28
2023-02-24T21:56:25.499Z,38.32
2023-02-24T21:58:57.673Z,38.33
2023-02-24T22:01:31.761Z,38.13
2023-02-24T22:04:01.449Z,38.09
2023-02-24T22:06:31.914Z,38.16
2023-02-24T22:09:01.118Z,38.37
2023-02-24T22:11:31.873Z,38.27
2023-02-24T22:13:59.992Z,38.15
2023-02-24T22:16:30.243Z,38.14
2023-02-24T22:18:58.339Z,38.08
2023-02-24T22:21:28.611Z,38.22
2023-02-24T22:23:59.763Z,38.22
2023-02-24T22:26:28.445Z,38.29
2023-02-24T22:28:56.965Z,38.20
2023-02-24T22:31:29.067Z,38.15
2023-02-24T22:33:58.680Z,38.27
2023-02-24T22:36:28.552Z,38.29
2023-02-24T22:38:58.174Z,38.21
2023-02-24T22:41:28.306Z,38.19
2023-02-24T22:43:56.522Z,38.11
2023-02-24T22:46:27.089Z,38.18
2023-02-24T22:48:56.394Z,38.10
2023-02-24T22:51:27.163Z,38.14
2023-02-24T22:53:56.465Z,38.19
2023-02-24T22:56:27.050Z,38.00
2023-02-24T22:58:55.800Z,37.91
2023-02-24T23:01:26.046Z,38.12
2023-02-24T23:03:54.639Z,37.86
2023-02-24T23:06:26.463Z,38.03
2023-02-24T23:08:55.642Z,37.97
2023-02-24T23:11:27.862Z,38.08
2023-02-24T23:13:57.136Z,37.93
2023-02-24T23:16:27.433Z,38.01
2023-02-24T23:18:58.344Z,38.05
2023-02-24T23:21:34.936Z,37.99
2023-02-24T23:24:04.184Z,37.87
2023-02-24T23:26:36.893Z,37.89
2023-02-24T23:29:06.154Z,37.93
2023-02-24T23:31:34.608Z,37.96
2023-02-24T23:34:07.223Z,38.07
2023-02-24T23:36:38.988Z,37.82
2023-02-24T23:39:08.949Z,37.83
2023-02-24T23:41:38.192Z,37.87
2023-02-24T23:44:07.116Z,37.94
2023-02-24T23:46:36.416Z,37.79
2023-02-24T23:49:05.280Z,37.95
2023-02-24T23:51:46.992Z,37.87
2023-02-24T23:54:18.026Z,37.82
2023-02-24T23:56:46.734Z,37.75
2023-02-24T23:59:15.212Z,37.87
